Terminal Aerodrome Forecast
Issued by NWS

Home | Current Version | Previous Version | Graphics & Text | Print | Product List | Glossary On
Versions: 1 2 3 4 5 6 7 8 9 10 11 12 13 14
386
FTUS43 KMPX 180520
TAFRWF
TAF
KRWF 180520Z 1806/1906 06005KT P6SM BKN150
     FM181200 05006KT P6SM OVC030
     FM181500 02010KT 1 1/2SM -SN BR OVC008
     FM190000 35007KT P6SM FEW030 SCT150=

USA.gov is the U.S. government's official web portal to all federal, state and local government web resources and services.